<?xml version="1.0" encoding="UTF-8" standalone="no" ?>
<gpx xmlns="http://www.topografix.com/GPX/1/1" xmlns:xsi="http://www.w3.org/2001/XMLSchema-instance" xsi:schemaLocation="http://www.topografix.com/GPX/1/1 http://www.topografix.com/GPX/1/1/gpx.xsd" version="1.1" creator="VisuGPX - https://www.visugpx.com">
  <metadata>
    <name>De Bazoches à Corbigny</name>
    <desc><![CDATA[LE CHEMIN VERS COMPOSTELLE, LA VOIE DE VEZELAY PAR NEVERS]]></desc>
  </metadata>
  <trk>
    <name><![CDATA[9542480-Bazoches - Corbigny]]></name>
    <trkseg>
      <trkpt lat="47.37846" lon="3.7855">
        <ele>225</ele>
        <time>2019-02-05T15:10:58Z</time>
      </trkpt>
      <trkpt lat="47.37825" lon="3.78535">
        <ele>226</ele>
        <time>2019-02-05T15:11:58Z</time>
      </trkpt>
      <trkpt lat="47.37817" lon="3.78497">
        <ele>224</ele>
        <time>2019-02-05T15:12:58Z</time>
      </trkpt>
      <trkpt lat="47.37819" lon="3.78471">
        <ele>222</ele>
        <time>2019-02-05T15:13:58Z</time>
      </trkpt>
      <trkpt lat="47.37826" lon="3.78444">
        <ele>220</ele>
        <time>2019-02-05T15:14:58Z</time>
      </trkpt>
      <trkpt lat="47.37832" lon="3.78398">
        <ele>217</ele>
        <time>2019-02-05T15:15:58Z</time>
      </trkpt>
      <trkpt lat="47.37835" lon="3.78372">
        <ele>215</ele>
        <time>2019-02-05T15:16:58Z</time>
      </trkpt>
      <trkpt lat="47.37878" lon="3.78301">
        <ele>214</ele>
        <time>2019-02-05T15:17:58Z</time>
      </trkpt>
      <trkpt lat="47.37933" lon="3.78212">
        <ele>220</ele>
        <time>2019-02-05T15:18:58Z</time>
      </trkpt>
      <trkpt lat="47.37954" lon="3.78169">
        <ele>222</ele>
        <time>2019-02-05T15:19:58Z</time>
      </trkpt>
      <trkpt lat="47.37967" lon="3.78088">
        <ele>227</ele>
        <time>2019-02-05T15:20:58Z</time>
      </trkpt>
      <trkpt lat="47.37983" lon="3.78034">
        <ele>231</ele>
        <time>2019-02-05T15:21:58Z</time>
      </trkpt>
      <trkpt lat="47.37989" lon="3.77975">
        <ele>233</ele>
        <time>2019-02-05T15:22:58Z</time>
      </trkpt>
      <trkpt lat="47.37984" lon="3.7792">
        <ele>234</ele>
        <time>2019-02-05T15:23:58Z</time>
      </trkpt>
      <trkpt lat="47.37963" lon="3.77863">
        <ele>237</ele>
        <time>2019-02-05T15:24:58Z</time>
      </trkpt>
      <trkpt lat="47.37936" lon="3.77823">
        <ele>241</ele>
        <time>2019-02-05T15:25:58Z</time>
      </trkpt>
      <trkpt lat="47.37897" lon="3.77773">
        <ele>247</ele>
        <time>2019-02-05T15:26:58Z</time>
      </trkpt>
      <trkpt lat="47.37865" lon="3.7772">
        <ele>253</ele>
        <time>2019-02-05T15:27:58Z</time>
      </trkpt>
      <trkpt lat="47.37824" lon="3.77695">
        <ele>260</ele>
        <time>2019-02-05T15:28:58Z</time>
      </trkpt>
      <trkpt lat="47.37715" lon="3.77519">
        <ele>282</ele>
        <time>2019-02-05T15:29:58Z</time>
      </trkpt>
      <trkpt lat="47.37706" lon="3.77466">
        <ele>286</ele>
        <time>2019-02-05T15:30:58Z</time>
      </trkpt>
      <trkpt lat="47.37647" lon="3.77385">
        <ele>298</ele>
        <time>2019-02-05T15:31:58Z</time>
      </trkpt>
      <trkpt lat="47.37614" lon="3.77361">
        <ele>299</ele>
        <time>2019-02-05T15:32:58Z</time>
      </trkpt>
      <trkpt lat="47.37576" lon="3.77337">
        <ele>300</ele>
        <time>2019-02-05T15:33:58Z</time>
      </trkpt>
      <trkpt lat="47.37562" lon="3.77323">
        <ele>299</ele>
        <time>2019-02-05T15:34:58Z</time>
      </trkpt>
      <trkpt lat="47.37516" lon="3.77267">
        <ele>300</ele>
        <time>2019-02-05T15:35:58Z</time>
      </trkpt>
      <trkpt lat="47.37453" lon="3.77237">
        <ele>303</ele>
        <time>2019-02-05T15:36:58Z</time>
      </trkpt>
      <trkpt lat="47.3743" lon="3.77221">
        <ele>305</ele>
        <time>2019-02-05T15:37:58Z</time>
      </trkpt>
      <trkpt lat="47.37295" lon="3.77121">
        <ele>308</ele>
        <time>2019-02-05T15:38:58Z</time>
      </trkpt>
      <trkpt lat="47.37248" lon="3.77065">
        <ele>309</ele>
        <time>2019-02-05T15:39:58Z</time>
      </trkpt>
      <trkpt lat="47.37208" lon="3.77022">
        <ele>308</ele>
        <time>2019-02-05T15:40:58Z</time>
      </trkpt>
      <trkpt lat="47.3714" lon="3.76736">
        <ele>315</ele>
        <time>2019-02-05T15:41:58Z</time>
      </trkpt>
      <trkpt lat="47.37152" lon="3.76699">
        <ele>317</ele>
        <time>2019-02-05T15:42:58Z</time>
      </trkpt>
      <trkpt lat="47.37138" lon="3.76665">
        <ele>318</ele>
        <time>2019-02-05T15:43:58Z</time>
      </trkpt>
      <trkpt lat="47.37134" lon="3.76594">
        <ele>320</ele>
        <time>2019-02-05T15:44:58Z</time>
      </trkpt>
      <trkpt lat="47.37142" lon="3.76571">
        <ele>322</ele>
        <time>2019-02-05T15:45:58Z</time>
      </trkpt>
      <trkpt lat="47.37024" lon="3.76551">
        <ele>321</ele>
        <time>2019-02-05T15:46:58Z</time>
      </trkpt>
      <trkpt lat="47.36941" lon="3.7651">
        <ele>325</ele>
        <time>2019-02-05T15:47:58Z</time>
      </trkpt>
      <trkpt lat="47.36831" lon="3.76497">
        <ele>325</ele>
        <time>2019-02-05T15:48:58Z</time>
      </trkpt>
      <trkpt lat="47.36712" lon="3.76481">
        <ele>326</ele>
        <time>2019-02-05T15:49:58Z</time>
      </trkpt>
      <trkpt lat="47.36641" lon="3.76473">
        <ele>325</ele>
        <time>2019-02-05T15:50:58Z</time>
      </trkpt>
      <trkpt lat="47.36569" lon="3.76417">
        <ele>324</ele>
        <time>2019-02-05T15:51:58Z</time>
      </trkpt>
      <trkpt lat="47.36521" lon="3.76363">
        <ele>323</ele>
        <time>2019-02-05T15:52:58Z</time>
      </trkpt>
      <trkpt lat="47.36478" lon="3.76303">
        <ele>322</ele>
        <time>2019-02-05T15:53:58Z</time>
      </trkpt>
      <trkpt lat="47.36404" lon="3.76176">
        <ele>315</ele>
        <time>2019-02-05T15:54:58Z</time>
      </trkpt>
      <trkpt lat="47.36369" lon="3.76113">
        <ele>318</ele>
        <time>2019-02-05T15:55:58Z</time>
      </trkpt>
      <trkpt lat="47.36358" lon="3.76067">
        <ele>319</ele>
        <time>2019-02-05T15:56:58Z</time>
      </trkpt>
      <trkpt lat="47.36362" lon="3.75984">
        <ele>315</ele>
        <time>2019-02-05T15:57:58Z</time>
      </trkpt>
      <trkpt lat="47.36369" lon="3.75847">
        <ele>306</ele>
        <time>2019-02-05T15:58:58Z</time>
      </trkpt>
      <trkpt lat="47.36375" lon="3.75761">
        <ele>300</ele>
        <time>2019-02-05T15:59:58Z</time>
      </trkpt>
      <trkpt lat="47.36367" lon="3.75695">
        <ele>297</ele>
        <time>2019-02-05T16:00:58Z</time>
      </trkpt>
      <trkpt lat="47.36354" lon="3.75502">
        <ele>290</ele>
        <time>2019-02-05T16:01:58Z</time>
      </trkpt>
      <trkpt lat="47.3635" lon="3.75468">
        <ele>288</ele>
        <time>2019-02-05T16:02:58Z</time>
      </trkpt>
      <trkpt lat="47.3625" lon="3.75077">
        <ele>279</ele>
        <time>2019-02-05T16:03:58Z</time>
      </trkpt>
      <trkpt lat="47.36222" lon="3.75006">
        <ele>273</ele>
        <time>2019-02-05T16:04:58Z</time>
      </trkpt>
      <trkpt lat="47.36154" lon="3.7491">
        <ele>268</ele>
        <time>2019-02-05T16:05:58Z</time>
      </trkpt>
      <trkpt lat="47.36123" lon="3.74845">
        <ele>270</ele>
        <time>2019-02-05T16:06:58Z</time>
      </trkpt>
      <trkpt lat="47.36094" lon="3.74758">
        <ele>272</ele>
        <time>2019-02-05T16:07:58Z</time>
      </trkpt>
      <trkpt lat="47.35993" lon="3.74781">
        <ele>283</ele>
        <time>2019-02-05T16:08:58Z</time>
      </trkpt>
      <trkpt lat="47.35924" lon="3.74781">
        <ele>287</ele>
        <time>2019-02-05T16:09:58Z</time>
      </trkpt>
      <trkpt lat="47.35858" lon="3.74781">
        <ele>291</ele>
        <time>2019-02-05T16:10:58Z</time>
      </trkpt>
      <trkpt lat="47.35764" lon="3.74779">
        <ele>295</ele>
        <time>2019-02-05T16:11:58Z</time>
      </trkpt>
      <trkpt lat="47.35717" lon="3.7473">
        <ele>297</ele>
        <time>2019-02-05T16:12:58Z</time>
      </trkpt>
      <trkpt lat="47.35614" lon="3.74614">
        <ele>299</ele>
        <time>2019-02-05T16:13:58Z</time>
      </trkpt>
      <trkpt lat="47.35544" lon="3.74536">
        <ele>301</ele>
        <time>2019-02-05T16:14:58Z</time>
      </trkpt>
      <trkpt lat="47.35476" lon="3.74424">
        <ele>306</ele>
        <time>2019-02-05T16:15:58Z</time>
      </trkpt>
      <trkpt lat="47.35413" lon="3.74281">
        <ele>317</ele>
        <time>2019-02-05T16:16:58Z</time>
      </trkpt>
      <trkpt lat="47.35349" lon="3.74192">
        <ele>322</ele>
        <time>2019-02-05T16:17:58Z</time>
      </trkpt>
      <trkpt lat="47.35303" lon="3.74155">
        <ele>324</ele>
        <time>2019-02-05T16:18:58Z</time>
      </trkpt>
      <trkpt lat="47.35233" lon="3.74081">
        <ele>325</ele>
        <time>2019-02-05T16:19:58Z</time>
      </trkpt>
      <trkpt lat="47.35169" lon="3.74007">
        <ele>322</ele>
        <time>2019-02-05T16:20:58Z</time>
      </trkpt>
      <trkpt lat="47.35072" lon="3.73966">
        <ele>319</ele>
        <time>2019-02-05T16:21:58Z</time>
      </trkpt>
      <trkpt lat="47.35022" lon="3.73932">
        <ele>317</ele>
        <time>2019-02-05T16:22:58Z</time>
      </trkpt>
      <trkpt lat="47.34967" lon="3.73891">
        <ele>314</ele>
        <time>2019-02-05T16:23:58Z</time>
      </trkpt>
      <trkpt lat="47.34887" lon="3.73851">
        <ele>310</ele>
        <time>2019-02-05T16:24:58Z</time>
      </trkpt>
      <trkpt lat="47.34831" lon="3.73841">
        <ele>310</ele>
        <time>2019-02-05T16:25:58Z</time>
      </trkpt>
      <trkpt lat="47.34723" lon="3.73841">
        <ele>307</ele>
        <time>2019-02-05T16:26:58Z</time>
      </trkpt>
      <trkpt lat="47.34647" lon="3.73833">
        <ele>303</ele>
        <time>2019-02-05T16:27:58Z</time>
      </trkpt>
      <trkpt lat="47.34615" lon="3.73819">
        <ele>303</ele>
        <time>2019-02-05T16:28:58Z</time>
      </trkpt>
      <trkpt lat="47.34567" lon="3.73789">
        <ele>303</ele>
        <time>2019-02-05T16:29:58Z</time>
      </trkpt>
      <trkpt lat="47.34369" lon="3.73747">
        <ele>300</ele>
        <time>2019-02-05T16:30:58Z</time>
      </trkpt>
      <trkpt lat="47.3434" lon="3.73752">
        <ele>298</ele>
        <time>2019-02-05T16:31:58Z</time>
      </trkpt>
      <trkpt lat="47.34287" lon="3.73745">
        <ele>288</ele>
        <time>2019-02-05T16:32:58Z</time>
      </trkpt>
      <trkpt lat="47.3423" lon="3.7377">
        <ele>280</ele>
        <time>2019-02-05T16:33:58Z</time>
      </trkpt>
      <trkpt lat="47.34189" lon="3.73801">
        <ele>278</ele>
        <time>2019-02-05T16:34:58Z</time>
      </trkpt>
      <trkpt lat="47.34165" lon="3.73807">
        <ele>277</ele>
        <time>2019-02-05T16:35:58Z</time>
      </trkpt>
      <trkpt lat="47.3415" lon="3.73799">
        <ele>278</ele>
        <time>2019-02-05T16:36:58Z</time>
      </trkpt>
      <trkpt lat="47.34119" lon="3.73734">
        <ele>280</ele>
        <time>2019-02-05T16:37:58Z</time>
      </trkpt>
      <trkpt lat="47.33964" lon="3.73827">
        <ele>297</ele>
        <time>2019-02-05T16:38:58Z</time>
      </trkpt>
      <trkpt lat="47.33889" lon="3.73852">
        <ele>295</ele>
        <time>2019-02-05T16:39:58Z</time>
      </trkpt>
      <trkpt lat="47.33862" lon="3.73877">
        <ele>293</ele>
        <time>2019-02-05T16:40:58Z</time>
      </trkpt>
      <trkpt lat="47.33859" lon="3.73993">
        <ele>297</ele>
        <time>2019-02-05T16:41:58Z</time>
      </trkpt>
      <trkpt lat="47.33838" lon="3.74055">
        <ele>298</ele>
        <time>2019-02-05T16:42:58Z</time>
      </trkpt>
      <trkpt lat="47.33813" lon="3.74214">
        <ele>299</ele>
        <time>2019-02-05T16:43:58Z</time>
      </trkpt>
      <trkpt lat="47.33754" lon="3.7429">
        <ele>292</ele>
        <time>2019-02-05T16:44:58Z</time>
      </trkpt>
      <trkpt lat="47.33732" lon="3.74293">
        <ele>289</ele>
        <time>2019-02-05T16:45:58Z</time>
      </trkpt>
      <trkpt lat="47.33656" lon="3.74273">
        <ele>282</ele>
        <time>2019-02-05T16:46:58Z</time>
      </trkpt>
      <trkpt lat="47.3363" lon="3.74252">
        <ele>284</ele>
        <time>2019-02-05T16:47:58Z</time>
      </trkpt>
      <trkpt lat="47.33646" lon="3.74135">
        <ele>279</ele>
        <time>2019-02-05T16:48:58Z</time>
      </trkpt>
      <trkpt lat="47.3367" lon="3.74047">
        <ele>271</ele>
        <time>2019-02-05T16:49:58Z</time>
      </trkpt>
      <trkpt lat="47.33678" lon="3.73979">
        <ele>268</ele>
        <time>2019-02-05T16:50:58Z</time>
      </trkpt>
      <trkpt lat="47.3371" lon="3.73833">
        <ele>265</ele>
        <time>2019-02-05T16:51:58Z</time>
      </trkpt>
      <trkpt lat="47.3372" lon="3.73753">
        <ele>261</ele>
        <time>2019-02-05T16:52:58Z</time>
      </trkpt>
      <trkpt lat="47.33708" lon="3.73688">
        <ele>258</ele>
        <time>2019-02-05T16:53:58Z</time>
      </trkpt>
      <trkpt lat="47.33702" lon="3.73636">
        <ele>256</ele>
        <time>2019-02-05T16:54:58Z</time>
      </trkpt>
      <trkpt lat="47.33707" lon="3.73589">
        <ele>253</ele>
        <time>2019-02-05T16:55:58Z</time>
      </trkpt>
      <trkpt lat="47.33688" lon="3.73559">
        <ele>251</ele>
        <time>2019-02-05T16:56:58Z</time>
      </trkpt>
      <trkpt lat="47.33659" lon="3.73422">
        <ele>244</ele>
        <time>2019-02-05T16:57:58Z</time>
      </trkpt>
      <trkpt lat="47.33617" lon="3.73317">
        <ele>241</ele>
        <time>2019-02-05T16:58:58Z</time>
      </trkpt>
      <trkpt lat="47.33591" lon="3.73287">
        <ele>240</ele>
        <time>2019-02-05T16:59:58Z</time>
      </trkpt>
      <trkpt lat="47.33513" lon="3.73246">
        <ele>238</ele>
        <time>2019-02-05T17:00:58Z</time>
      </trkpt>
      <trkpt lat="47.33422" lon="3.73239">
        <ele>236</ele>
        <time>2019-02-05T17:01:58Z</time>
      </trkpt>
      <trkpt lat="47.3336" lon="3.73245">
        <ele>233</ele>
        <time>2019-02-05T17:02:58Z</time>
      </trkpt>
      <trkpt lat="47.33328" lon="3.73261">
        <ele>232</ele>
        <time>2019-02-05T17:03:58Z</time>
      </trkpt>
      <trkpt lat="47.33267" lon="3.73258">
        <ele>232</ele>
        <time>2019-02-05T17:04:58Z</time>
      </trkpt>
      <trkpt lat="47.33213" lon="3.73267">
        <ele>237</ele>
        <time>2019-02-05T17:05:58Z</time>
      </trkpt>
      <trkpt lat="47.33182" lon="3.73276">
        <ele>241</ele>
        <time>2019-02-05T17:06:58Z</time>
      </trkpt>
      <trkpt lat="47.33023" lon="3.73383">
        <ele>270</ele>
        <time>2019-02-05T17:07:58Z</time>
      </trkpt>
      <trkpt lat="47.32983" lon="3.73405">
        <ele>277</ele>
        <time>2019-02-05T17:08:58Z</time>
      </trkpt>
      <trkpt lat="47.32934" lon="3.73404">
        <ele>288</ele>
        <time>2019-02-05T17:09:58Z</time>
      </trkpt>
      <trkpt lat="47.32825" lon="3.73371">
        <ele>300</ele>
        <time>2019-02-05T17:10:58Z</time>
      </trkpt>
      <trkpt lat="47.32772" lon="3.73371">
        <ele>301</ele>
        <time>2019-02-05T17:11:58Z</time>
      </trkpt>
      <trkpt lat="47.32687" lon="3.73378">
        <ele>300</ele>
        <time>2019-02-05T17:12:58Z</time>
      </trkpt>
      <trkpt lat="47.32657" lon="3.73392">
        <ele>299</ele>
        <time>2019-02-05T17:13:58Z</time>
      </trkpt>
      <trkpt lat="47.32609" lon="3.73393">
        <ele>297</ele>
        <time>2019-02-05T17:14:58Z</time>
      </trkpt>
      <trkpt lat="47.32508" lon="3.73427">
        <ele>294</ele>
        <time>2019-02-05T17:15:58Z</time>
      </trkpt>
      <trkpt lat="47.32468" lon="3.73433">
        <ele>294</ele>
        <time>2019-02-05T17:16:58Z</time>
      </trkpt>
      <trkpt lat="47.32424" lon="3.73418">
        <ele>293</ele>
        <time>2019-02-05T17:17:58Z</time>
      </trkpt>
      <trkpt lat="47.32385" lon="3.73402">
        <ele>294</ele>
        <time>2019-02-05T17:18:58Z</time>
      </trkpt>
      <trkpt lat="47.32369" lon="3.73389">
        <ele>294</ele>
        <time>2019-02-05T17:19:58Z</time>
      </trkpt>
      <trkpt lat="47.32334" lon="3.73384">
        <ele>297</ele>
        <time>2019-02-05T17:20:58Z</time>
      </trkpt>
      <trkpt lat="47.32292" lon="3.73358">
        <ele>299</ele>
        <time>2019-02-05T17:21:58Z</time>
      </trkpt>
      <trkpt lat="47.32238" lon="3.73311">
        <ele>302</ele>
        <time>2019-02-05T17:22:58Z</time>
      </trkpt>
      <trkpt lat="47.32218" lon="3.73255">
        <ele>303</ele>
        <time>2019-02-05T17:23:58Z</time>
      </trkpt>
      <trkpt lat="47.32178" lon="3.73191">
        <ele>306</ele>
        <time>2019-02-05T17:24:58Z</time>
      </trkpt>
      <trkpt lat="47.32113" lon="3.7324">
        <ele>309</ele>
        <time>2019-02-05T17:25:58Z</time>
      </trkpt>
      <trkpt lat="47.32107" lon="3.7322">
        <ele>309</ele>
        <time>2019-02-05T17:26:58Z</time>
      </trkpt>
      <trkpt lat="47.32073" lon="3.73235">
        <ele>308</ele>
        <time>2019-02-05T17:27:58Z</time>
      </trkpt>
      <trkpt lat="47.32031" lon="3.73276">
        <ele>302</ele>
        <time>2019-02-05T17:28:58Z</time>
      </trkpt>
      <trkpt lat="47.31983" lon="3.73323">
        <ele>295</ele>
        <time>2019-02-05T17:29:58Z</time>
      </trkpt>
      <trkpt lat="47.3193" lon="3.73339">
        <ele>286</ele>
        <time>2019-02-05T17:30:58Z</time>
      </trkpt>
      <trkpt lat="47.31899" lon="3.73348">
        <ele>281</ele>
        <time>2019-02-05T17:31:58Z</time>
      </trkpt>
      <trkpt lat="47.31875" lon="3.73367">
        <ele>276</ele>
        <time>2019-02-05T17:32:58Z</time>
      </trkpt>
      <trkpt lat="47.31831" lon="3.73375">
        <ele>268</ele>
        <time>2019-02-05T17:33:58Z</time>
      </trkpt>
      <trkpt lat="47.31788" lon="3.73387">
        <ele>262</ele>
        <time>2019-02-05T17:34:58Z</time>
      </trkpt>
      <trkpt lat="47.31753" lon="3.73442">
        <ele>256</ele>
        <time>2019-02-05T17:35:58Z</time>
      </trkpt>
      <trkpt lat="47.31698" lon="3.73501">
        <ele>247</ele>
        <time>2019-02-05T17:36:58Z</time>
      </trkpt>
      <trkpt lat="47.31662" lon="3.73515">
        <ele>242</ele>
        <time>2019-02-05T17:37:58Z</time>
      </trkpt>
      <trkpt lat="47.31617" lon="3.73531">
        <ele>238</ele>
        <time>2019-02-05T17:38:58Z</time>
      </trkpt>
      <trkpt lat="47.31574" lon="3.73575">
        <ele>234</ele>
        <time>2019-02-05T17:39:58Z</time>
      </trkpt>
      <trkpt lat="47.31468" lon="3.73706">
        <ele>233</ele>
        <time>2019-02-05T17:40:58Z</time>
      </trkpt>
      <trkpt lat="47.31442" lon="3.7376">
        <ele>236</ele>
        <time>2019-02-05T17:41:58Z</time>
      </trkpt>
      <trkpt lat="47.3139" lon="3.73839">
        <ele>239</ele>
        <time>2019-02-05T17:42:58Z</time>
      </trkpt>
      <trkpt lat="47.31327" lon="3.73903">
        <ele>243</ele>
        <time>2019-02-05T17:43:58Z</time>
      </trkpt>
      <trkpt lat="47.31285" lon="3.73899">
        <ele>243</ele>
        <time>2019-02-05T17:44:58Z</time>
      </trkpt>
      <trkpt lat="47.31244" lon="3.73906">
        <ele>243</ele>
        <time>2019-02-05T17:45:58Z</time>
      </trkpt>
      <trkpt lat="47.31217" lon="3.73902">
        <ele>243</ele>
        <time>2019-02-05T17:46:58Z</time>
      </trkpt>
      <trkpt lat="47.31168" lon="3.73914">
        <ele>242</ele>
        <time>2019-02-05T17:47:58Z</time>
      </trkpt>
      <trkpt lat="47.31113" lon="3.73891">
        <ele>241</ele>
        <time>2019-02-05T17:48:58Z</time>
      </trkpt>
      <trkpt lat="47.31087" lon="3.73861">
        <ele>240</ele>
        <time>2019-02-05T17:49:58Z</time>
      </trkpt>
      <trkpt lat="47.31024" lon="3.73771">
        <ele>236</ele>
        <time>2019-02-05T17:50:58Z</time>
      </trkpt>
      <trkpt lat="47.30979" lon="3.73686">
        <ele>231</ele>
        <time>2019-02-05T17:51:58Z</time>
      </trkpt>
      <trkpt lat="47.30959" lon="3.73621">
        <ele>228</ele>
        <time>2019-02-05T17:52:58Z</time>
      </trkpt>
      <trkpt lat="47.30896" lon="3.73477">
        <ele>221</ele>
        <time>2019-02-05T17:53:58Z</time>
      </trkpt>
      <trkpt lat="47.30862" lon="3.73372">
        <ele>215</ele>
        <time>2019-02-05T17:54:58Z</time>
      </trkpt>
      <trkpt lat="47.30836" lon="3.73343">
        <ele>213</ele>
        <time>2019-02-05T17:55:58Z</time>
      </trkpt>
      <trkpt lat="47.30783" lon="3.73311">
        <ele>212</ele>
        <time>2019-02-05T17:56:58Z</time>
      </trkpt>
      <trkpt lat="47.30718" lon="3.73275">
        <ele>211</ele>
        <time>2019-02-05T17:57:58Z</time>
      </trkpt>
      <trkpt lat="47.30681" lon="3.7324">
        <ele>212</ele>
        <time>2019-02-05T17:58:58Z</time>
      </trkpt>
      <trkpt lat="47.30619" lon="3.73037">
        <ele>212</ele>
        <time>2019-02-05T17:59:58Z</time>
      </trkpt>
      <trkpt lat="47.3057" lon="3.7289">
        <ele>209</ele>
        <time>2019-02-05T18:00:58Z</time>
      </trkpt>
      <trkpt lat="47.3053" lon="3.72786">
        <ele>207</ele>
        <time>2019-02-05T18:01:58Z</time>
      </trkpt>
      <trkpt lat="47.30476" lon="3.72671">
        <ele>207</ele>
        <time>2019-02-05T18:02:58Z</time>
      </trkpt>
      <trkpt lat="47.30431" lon="3.72504">
        <ele>209</ele>
        <time>2019-02-05T18:03:58Z</time>
      </trkpt>
      <trkpt lat="47.30394" lon="3.72406">
        <ele>206</ele>
        <time>2019-02-05T18:04:58Z</time>
      </trkpt>
      <trkpt lat="47.30374" lon="3.72357">
        <ele>205</ele>
        <time>2019-02-05T18:05:58Z</time>
      </trkpt>
      <trkpt lat="47.30354" lon="3.72286">
        <ele>205</ele>
        <time>2019-02-05T18:06:58Z</time>
      </trkpt>
      <trkpt lat="47.3035" lon="3.72196">
        <ele>205</ele>
        <time>2019-02-05T18:07:58Z</time>
      </trkpt>
      <trkpt lat="47.30338" lon="3.72143">
        <ele>205</ele>
        <time>2019-02-05T18:08:58Z</time>
      </trkpt>
      <trkpt lat="47.30296" lon="3.7207">
        <ele>208</ele>
        <time>2019-02-05T18:09:58Z</time>
      </trkpt>
      <trkpt lat="47.3029" lon="3.72043">
        <ele>208</ele>
        <time>2019-02-05T18:10:58Z</time>
      </trkpt>
      <trkpt lat="47.30269" lon="3.71928">
        <ele>207</ele>
        <time>2019-02-05T18:11:58Z</time>
      </trkpt>
      <trkpt lat="47.30241" lon="3.71865">
        <ele>207</ele>
        <time>2019-02-05T18:12:58Z</time>
      </trkpt>
      <trkpt lat="47.30179" lon="3.71755">
        <ele>208</ele>
        <time>2019-02-05T18:13:58Z</time>
      </trkpt>
      <trkpt lat="47.30165" lon="3.71706">
        <ele>209</ele>
        <time>2019-02-05T18:14:58Z</time>
      </trkpt>
      <trkpt lat="47.30162" lon="3.71642">
        <ele>209</ele>
        <time>2019-02-05T18:15:58Z</time>
      </trkpt>
      <trkpt lat="47.30152" lon="3.71604">
        <ele>209</ele>
        <time>2019-02-05T18:16:58Z</time>
      </trkpt>
      <trkpt lat="47.30128" lon="3.7158">
        <ele>210</ele>
        <time>2019-02-05T18:17:58Z</time>
      </trkpt>
      <trkpt lat="47.30104" lon="3.71571">
        <ele>211</ele>
        <time>2019-02-05T18:18:58Z</time>
      </trkpt>
      <trkpt lat="47.30083" lon="3.71565">
        <ele>212</ele>
        <time>2019-02-05T18:19:58Z</time>
      </trkpt>
      <trkpt lat="47.30038" lon="3.71527">
        <ele>214</ele>
        <time>2019-02-05T18:20:58Z</time>
      </trkpt>
      <trkpt lat="47.30018" lon="3.71486">
        <ele>214</ele>
        <time>2019-02-05T18:21:58Z</time>
      </trkpt>
      <trkpt lat="47.30013" lon="3.71448">
        <ele>213</ele>
        <time>2019-02-05T18:22:58Z</time>
      </trkpt>
      <trkpt lat="47.30024" lon="3.71394">
        <ele>209</ele>
        <time>2019-02-05T18:23:58Z</time>
      </trkpt>
      <trkpt lat="47.30018" lon="3.71366">
        <ele>208</ele>
        <time>2019-02-05T18:24:58Z</time>
      </trkpt>
      <trkpt lat="47.29895" lon="3.71114">
        <ele>205</ele>
        <time>2019-02-05T18:25:58Z</time>
      </trkpt>
      <trkpt lat="47.29862" lon="3.71064">
        <ele>208</ele>
        <time>2019-02-05T18:26:58Z</time>
      </trkpt>
      <trkpt lat="47.29837" lon="3.71043">
        <ele>210</ele>
        <time>2019-02-05T18:27:58Z</time>
      </trkpt>
      <trkpt lat="47.29798" lon="3.71004">
        <ele>212</ele>
        <time>2019-02-05T18:28:58Z</time>
      </trkpt>
      <trkpt lat="47.29893" lon="3.70617">
        <ele>191</ele>
        <time>2019-02-05T18:29:58Z</time>
      </trkpt>
      <trkpt lat="47.29894" lon="3.7058">
        <ele>191</ele>
        <time>2019-02-05T18:30:58Z</time>
      </trkpt>
      <trkpt lat="47.29887" lon="3.70544">
        <ele>191</ele>
        <time>2019-02-05T18:31:58Z</time>
      </trkpt>
      <trkpt lat="47.29859" lon="3.70486">
        <ele>191</ele>
        <time>2019-02-05T18:32:58Z</time>
      </trkpt>
      <trkpt lat="47.29844" lon="3.70404">
        <ele>192</ele>
        <time>2019-02-05T18:33:58Z</time>
      </trkpt>
      <trkpt lat="47.29819" lon="3.70341">
        <ele>193</ele>
        <time>2019-02-05T18:34:58Z</time>
      </trkpt>
      <trkpt lat="47.29794" lon="3.70278">
        <ele>195</ele>
        <time>2019-02-05T18:35:58Z</time>
      </trkpt>
      <trkpt lat="47.2977" lon="3.70161">
        <ele>197</ele>
        <time>2019-02-05T18:36:58Z</time>
      </trkpt>
      <trkpt lat="47.29749" lon="3.7007">
        <ele>199</ele>
        <time>2019-02-05T18:37:58Z</time>
      </trkpt>
      <trkpt lat="47.29736" lon="3.70016">
        <ele>200</ele>
        <time>2019-02-05T18:38:58Z</time>
      </trkpt>
      <trkpt lat="47.29746" lon="3.69925">
        <ele>205</ele>
        <time>2019-02-05T18:39:58Z</time>
      </trkpt>
      <trkpt lat="47.29727" lon="3.69823">
        <ele>207</ele>
        <time>2019-02-05T18:40:58Z</time>
      </trkpt>
      <trkpt lat="47.29718" lon="3.69726">
        <ele>208</ele>
        <time>2019-02-05T18:41:58Z</time>
      </trkpt>
      <trkpt lat="47.29712" lon="3.6967">
        <ele>208</ele>
        <time>2019-02-05T18:42:58Z</time>
      </trkpt>
      <trkpt lat="47.29728" lon="3.69256">
        <ele>208</ele>
        <time>2019-02-05T18:43:58Z</time>
      </trkpt>
      <trkpt lat="47.29676" lon="3.69152">
        <ele>203</ele>
        <time>2019-02-05T18:44:58Z</time>
      </trkpt>
      <trkpt lat="47.29615" lon="3.69031">
        <ele>193</ele>
        <time>2019-02-05T18:45:58Z</time>
      </trkpt>
      <trkpt lat="47.29603" lon="3.68984">
        <ele>191</ele>
        <time>2019-02-05T18:46:58Z</time>
      </trkpt>
      <trkpt lat="47.2959" lon="3.68901">
        <ele>190</ele>
        <time>2019-02-05T18:47:58Z</time>
      </trkpt>
      <trkpt lat="47.29575" lon="3.68817">
        <ele>187</ele>
        <time>2019-02-05T18:48:58Z</time>
      </trkpt>
      <trkpt lat="47.29552" lon="3.68728">
        <ele>185</ele>
        <time>2019-02-05T18:49:58Z</time>
      </trkpt>
      <trkpt lat="47.29495" lon="3.68585">
        <ele>179</ele>
        <time>2019-02-05T18:50:58Z</time>
      </trkpt>
      <trkpt lat="47.29466" lon="3.68558">
        <ele>179</ele>
        <time>2019-02-05T18:51:58Z</time>
      </trkpt>
      <trkpt lat="47.29389" lon="3.68497">
        <ele>181</ele>
        <time>2019-02-05T18:52:58Z</time>
      </trkpt>
      <trkpt lat="47.29364" lon="3.68485">
        <ele>182</ele>
        <time>2019-02-05T18:53:58Z</time>
      </trkpt>
      <trkpt lat="47.29337" lon="3.68483">
        <ele>184</ele>
        <time>2019-02-05T18:54:58Z</time>
      </trkpt>
      <trkpt lat="47.29138" lon="3.68553">
        <ele>191</ele>
        <time>2019-02-05T18:55:58Z</time>
      </trkpt>
      <trkpt lat="47.29004" lon="3.68602">
        <ele>194</ele>
        <time>2019-02-05T18:56:58Z</time>
      </trkpt>
      <trkpt lat="47.28956" lon="3.68571">
        <ele>197</ele>
        <time>2019-02-05T18:57:58Z</time>
      </trkpt>
      <trkpt lat="47.28811" lon="3.68465">
        <ele>208</ele>
        <time>2019-02-05T18:58:58Z</time>
      </trkpt>
      <trkpt lat="47.28773" lon="3.68435">
        <ele>210</ele>
        <time>2019-02-05T18:59:58Z</time>
      </trkpt>
      <trkpt lat="47.28731" lon="3.68363">
        <ele>213</ele>
        <time>2019-02-05T19:00:58Z</time>
      </trkpt>
      <trkpt lat="47.28558" lon="3.68103">
        <ele>233</ele>
        <time>2019-02-05T19:01:58Z</time>
      </trkpt>
      <trkpt lat="47.28532" lon="3.68052">
        <ele>235</ele>
        <time>2019-02-05T19:02:58Z</time>
      </trkpt>
      <trkpt lat="47.2827" lon="3.6798">
        <ele>249</ele>
        <time>2019-02-05T19:03:58Z</time>
      </trkpt>
      <trkpt lat="47.28233" lon="3.6798">
        <ele>248</ele>
        <time>2019-02-05T19:04:58Z</time>
      </trkpt>
      <trkpt lat="47.28057" lon="3.68007">
        <ele>249</ele>
        <time>2019-02-05T19:05:58Z</time>
      </trkpt>
      <trkpt lat="47.27741" lon="3.6803">
        <ele>255</ele>
        <time>2019-02-05T19:06:58Z</time>
      </trkpt>
      <trkpt lat="47.27685" lon="3.68028">
        <ele>252</ele>
        <time>2019-02-05T19:07:58Z</time>
      </trkpt>
      <trkpt lat="47.27354" lon="3.67993">
        <ele>232</ele>
        <time>2019-02-05T19:08:58Z</time>
      </trkpt>
      <trkpt lat="47.27317" lon="3.67978">
        <ele>232</ele>
        <time>2019-02-05T19:09:58Z</time>
      </trkpt>
      <trkpt lat="47.27189" lon="3.67905">
        <ele>240</ele>
        <time>2019-02-05T19:10:58Z</time>
      </trkpt>
      <trkpt lat="47.27006" lon="3.67784">
        <ele>248</ele>
        <time>2019-02-05T19:11:58Z</time>
      </trkpt>
      <trkpt lat="47.26959" lon="3.67752">
        <ele>246</ele>
        <time>2019-02-05T19:12:58Z</time>
      </trkpt>
      <trkpt lat="47.2691" lon="3.67741">
        <ele>244</ele>
        <time>2019-02-05T19:13:58Z</time>
      </trkpt>
      <trkpt lat="47.26799" lon="3.67714">
        <ele>238</ele>
        <time>2019-02-05T19:14:58Z</time>
      </trkpt>
      <trkpt lat="47.2675" lon="3.67707">
        <ele>234</ele>
        <time>2019-02-05T19:15:58Z</time>
      </trkpt>
      <trkpt lat="47.26645" lon="3.67728">
        <ele>224</ele>
        <time>2019-02-05T19:16:58Z</time>
      </trkpt>
      <trkpt lat="47.26558" lon="3.67722">
        <ele>219</ele>
        <time>2019-02-05T19:17:58Z</time>
      </trkpt>
      <trkpt lat="47.26533" lon="3.67764">
        <ele>214</ele>
        <time>2019-02-05T19:18:58Z</time>
      </trkpt>
      <trkpt lat="47.26507" lon="3.67807">
        <ele>212</ele>
        <time>2019-02-05T19:19:58Z</time>
      </trkpt>
      <trkpt lat="47.26466" lon="3.67849">
        <ele>209</ele>
        <time>2019-02-05T19:20:58Z</time>
      </trkpt>
      <trkpt lat="47.26387" lon="3.67928">
        <ele>201</ele>
        <time>2019-02-05T19:21:58Z</time>
      </trkpt>
      <trkpt lat="47.26344" lon="3.67995">
        <ele>201</ele>
        <time>2019-02-05T19:22:58Z</time>
      </trkpt>
      <trkpt lat="47.26308" lon="3.68066">
        <ele>201</ele>
        <time>2019-02-05T19:23:58Z</time>
      </trkpt>
      <trkpt lat="47.26242" lon="3.68143">
        <ele>202</ele>
        <time>2019-02-05T19:24:58Z</time>
      </trkpt>
      <trkpt lat="47.26236" lon="3.68178">
        <ele>203</ele>
        <time>2019-02-05T19:25:58Z</time>
      </trkpt>
      <trkpt lat="47.26204" lon="3.68238">
        <ele>202</ele>
        <time>2019-02-05T19:26:58Z</time>
      </trkpt>
      <trkpt lat="47.26173" lon="3.68272">
        <ele>202</ele>
        <time>2019-02-05T19:27:58Z</time>
      </trkpt>
      <trkpt lat="47.26134" lon="3.6831">
        <ele>202</ele>
        <time>2019-02-05T19:28:58Z</time>
      </trkpt>
      <trkpt lat="47.26064" lon="3.68391">
        <ele>202</ele>
        <time>2019-02-05T19:29:58Z</time>
      </trkpt>
      <trkpt lat="47.26041" lon="3.68424">
        <ele>201</ele>
        <time>2019-02-05T19:30:58Z</time>
      </trkpt>
      <trkpt lat="47.2601" lon="3.68456">
        <ele>200</ele>
        <time>2019-02-05T19:31:58Z</time>
      </trkpt>
      <trkpt lat="47.25967" lon="3.68447">
        <ele>199</ele>
        <time>2019-02-05T19:32:58Z</time>
      </trkpt>
      <trkpt lat="47.25921" lon="3.68432">
        <ele>197</ele>
        <time>2019-02-05T19:33:58Z</time>
      </trkpt>
      <trkpt lat="47.25885" lon="3.68418">
        <ele>197</ele>
        <time>2019-02-05T19:34:58Z</time>
      </trkpt>
      <trkpt lat="47.25853" lon="3.68359">
        <ele>198</ele>
        <time>2019-02-05T19:35:58Z</time>
      </trkpt>
      <trkpt lat="47.25828" lon="3.68341">
        <ele>199</ele>
        <time>2019-02-05T19:36:58Z</time>
      </trkpt>
      <trkpt lat="47.25812" lon="3.68368">
        <ele>198</ele>
        <time>2019-02-05T19:37:58Z</time>
      </trkpt>
      <trkpt lat="47.25779" lon="3.68397">
        <ele>198</ele>
        <time>2019-02-05T19:38:58Z</time>
      </trkpt>
      <trkpt lat="47.25738" lon="3.68436">
        <ele>199</ele>
        <time>2019-02-05T19:39:58Z</time>
      </trkpt>
      <trkpt lat="47.25708" lon="3.68461">
        <ele>199</ele>
        <time>2019-02-05T19:40:58Z</time>
      </trkpt>
    </trkseg>
  </trk>
</gpx>